createdAt,value
2018-05-25T00:00:59.232Z,100487.02
2018-05-25T00:03:27.587Z,100486.16
2018-05-25T00:05:56.818Z,100487.52
2018-05-25T00:08:25.209Z,100480.61
2018-05-25T00:10:54.037Z,100481.25
2018-05-25T00:13:24.111Z,100482.20
2018-05-25T00:15:52.426Z,100481.72
2018-05-25T00:18:20.804Z,100481.47
2018-05-25T00:20:49.151Z,100481.65
2018-05-25T00:23:17.506Z,100479.94
2018-05-25T00:25:46.785Z,100478.72
2018-05-25T00:28:15.103Z,100481.91
2018-05-25T00:30:43.436Z,100479.56
2018-05-25T00:33:11.764Z,100472.08
2018-05-25T00:35:40.204Z,100476.70
2018-05-25T00:38:08.554Z,100472.78
2018-05-25T00:40:36.877Z,100477.05
2018-05-25T00:43:05.272Z,100470.19
2018-05-25T00:45:33.600Z,100477.05
2018-05-25T00:48:02.048Z,100475.27
2018-05-25T00:50:30.445Z,100473.50
2018-05-25T00:52:58.814Z,100467.37
2018-05-25T00:55:41.541Z,100464.82
2018-05-25T00:58:09.977Z,100472.48
2018-05-25T01:00:38.436Z,100476.77
2018-05-25T01:03:06.838Z,100472.70
2018-05-25T01:05:35.183Z,100471.04
2018-05-25T01:08:03.611Z,100472.15
2018-05-25T01:10:33.309Z,100471.28
2018-05-25T01:13:01.622Z,100474.23
2018-05-25T01:15:30.017Z,100471.27
2018-05-25T01:17:58.377Z,100472.62
2018-05-25T01:20:26.697Z,100472.41
2018-05-25T01:22:55.996Z,100470.70
2018-05-25T01:25:24.315Z,100468.08
2018-05-25T01:27:52.648Z,100465.30
2018-05-25T01:30:20.983Z,100461.88
2018-05-25T01:32:49.316Z,100458.68
2018-05-25T01:35:17.668Z,100460.60
2018-05-25T01:37:46.013Z,100454.39
2018-05-25T01:40:14.347Z,100458.84
2018-05-25T01:42:42.708Z,100458.11
2018-05-25T01:45:11.014Z,100457.32
2018-05-25T01:47:39.423Z,100457.41
2018-05-25T01:50:08.966Z,100459.88
2018-05-25T01:52:38.190Z,100451.41
2018-05-25T01:55:06.547Z,100455.40
2018-05-25T01:57:34.863Z,100465.06
2018-05-25T02:00:03.216Z,100458.20
2018-05-25T02:02:32.476Z,100468.17
2018-05-25T02:05:01.037Z,100459.64
2018-05-25T02:07:29.381Z,100458.30
2018-05-25T02:09:57.715Z,100455.72
2018-05-25T02:12:26.118Z,100454.53
2018-05-25T02:14:54.996Z,100451.65
2018-05-25T02:17:23.632Z,100454.53
2018-05-25T02:19:51.981Z,100454.75
2018-05-25T02:22:20.447Z,100458.45
2018-05-25T02:24:48.896Z,100460.68
2018-05-25T02:27:17.214Z,100462.12
2018-05-25T02:29:45.628Z,100460.36
2018-05-25T02:32:13.941Z,100461.16
2018-05-25T02:34:42.312Z,100468.23
2018-05-25T02:37:10.633Z,100462.27
2018-05-25T02:39:39.044Z,100464.98
2018-05-25T02:42:07.314Z,100459.88
2018-05-25T02:44:35.635Z,100453.72
2018-05-25T02:47:03.989Z,100453.80
2018-05-25T02:49:32.328Z,100454.19
2018-05-25T02:52:00.660Z,100456.27
2018-05-25T02:54:28.983Z,100459.63
2018-05-25T02:56:57.388Z,100447.09
2018-05-25T02:59:25.721Z,100443.84
2018-05-25T03:01:54.060Z,100447.18
2018-05-25T03:04:22.397Z,100445.34
2018-05-25T03:06:50.711Z,100450.63
2018-05-25T03:09:19.030Z,100448.07
2018-05-25T03:11:47.369Z,100453.54
2018-05-25T03:14:16.479Z,100454.19
2018-05-25T03:16:44.866Z,100450.83
2018-05-25T03:19:13.235Z,100452.12
2018-05-25T03:21:41.625Z,100453.63
2018-05-25T03:24:10.012Z,100452.91
2018-05-25T03:26:38.406Z,100449.89
2018-05-25T03:29:06.800Z,100451.17
2018-05-25T03:31:35.157Z,100455.24
2018-05-25T03:34:03.500Z,100464.56
2018-05-25T03:36:31.819Z,100465.99
2018-05-25T03:39:03.342Z,100468.14
2018-05-25T03:41:31.687Z,100461.94
2018-05-25T03:44:00.036Z,100456.44
2018-05-25T03:46:28.345Z,100455.96
2018-05-25T03:48:56.771Z,100467.05
2018-05-25T03:51:25.136Z,100466.56
2018-05-25T03:53:53.660Z,100461.31
2018-05-25T03:56:21.963Z,100462.12
2018-05-25T03:59:03.011Z,100461.47
2018-05-25T04:01:43.941Z,100457.71
2018-05-25T04:04:12.267Z,100469.13
2018-05-25T04:06:40.648Z,100467.61
2018-05-25T04:09:09.779Z,100462.45
2018-05-25T04:11:38.178Z,100461.34
2018-05-25T04:14:06.537Z,100468.69
2018-05-25T04:16:34.889Z,100468.98
2018-05-25T04:19:04.309Z,100469.77
2018-05-25T04:21:32.642Z,100468.98
2018-05-25T04:24:00.963Z,100478.78
2018-05-25T04:26:29.278Z,100471.05
2018-05-25T04:28:57.707Z,100480.14
2018-05-25T04:31:26.035Z,100483.34
2018-05-25T04:33:54.434Z,100485.83
2018-05-25T04:36:22.748Z,100492.03
2018-05-25T04:38:51.078Z,100498.02
2018-05-25T04:41:19.415Z,100494.36
2018-05-25T04:43:47.752Z,100492.21
2018-05-25T04:46:16.150Z,100483.34
2018-05-25T04:48:44.483Z,100485.63
2018-05-25T04:51:12.808Z,100481.93
2018-05-25T04:53:41.163Z,100483.89
2018-05-25T04:56:09.500Z,100478.59
2018-05-25T04:58:37.914Z,100483.58
2018-05-25T05:01:06.281Z,100482.05
2018-05-25T05:03:34.587Z,100476.36
2018-05-25T05:06:02.938Z,100474.66
2018-05-25T05:08:31.268Z,100475.38
2018-05-25T05:10:59.669Z,100475.77
2018-05-25T05:13:28.011Z,100473.61
2018-05-25T05:15:56.363Z,100459.30
2018-05-25T05:18:24.745Z,100461.35
2018-05-25T05:20:53.090Z,100458.48
2018-05-25T05:23:21.523Z,100457.42
2018-05-25T05:25:49.850Z,100448.43
2018-05-25T05:28:18.182Z,100452.92
2018-05-25T05:30:46.591Z,100454.39
2018-05-25T05:33:14.920Z,100453.22
2018-05-25T05:35:43.279Z,100454.39
2018-05-25T05:38:11.622Z,100459.60
2018-05-25T05:40:39.971Z,100465.47
2018-05-25T05:43:08.711Z,100467.42
2018-05-25T05:45:37.100Z,100464.78
2018-05-25T05:48:05.467Z,100470.08
2018-05-25T05:50:33.890Z,100466.44
2018-05-25T05:53:02.254Z,100466.23
2018-05-25T05:55:30.647Z,100471.94
2018-05-25T05:57:59.021Z,100464.69
2018-05-25T06:00:27.409Z,100454.37
2018-05-25T06:02:58.567Z,100460.64
2018-05-25T06:05:26.961Z,100452.71
2018-05-25T06:07:55.364Z,100452.03
2018-05-25T06:10:23.703Z,100453.52
2018-05-25T06:12:52.148Z,100450.08
2018-05-25T06:15:20.489Z,100450.44
2018-05-25T06:17:48.833Z,100451.63
2018-05-25T06:20:17.266Z,100449.02
2018-05-25T06:22:45.568Z,100451.64
2018-05-25T06:25:13.910Z,100454.52
2018-05-25T06:27:42.256Z,100456.28
2018-05-25T06:30:10.681Z,100463.44
2018-05-25T06:32:39.021Z,100461.52
2018-05-25T06:35:07.364Z,100463.44
2018-05-25T06:37:35.708Z,100468.95
2018-05-25T06:40:04.057Z,100465.25
2018-05-25T06:42:32.414Z,100454.08
2018-05-25T06:45:00.740Z,100451.72
2018-05-25T06:47:29.132Z,100452.98
2018-05-25T06:49:57.460Z,100446.44
2018-05-25T06:52:26.410Z,100455.52
2018-05-25T06:54:54.788Z,100455.59
2018-05-25T06:57:23.200Z,100457.83
2018-05-25T07:00:09.485Z,100448.76
2018-05-25T07:05:29.305Z,100450.84
2018-05-25T07:07:57.623Z,100450.66
2018-05-25T07:10:26.027Z,100444.52
2018-05-25T07:12:54.369Z,100447.22
2018-05-25T07:15:22.811Z,100448.45
2018-05-25T07:17:51.201Z,100441.97
2018-05-25T07:20:19.524Z,100450.45
2018-05-25T07:22:47.849Z,100452.65
2018-05-25T07:25:16.163Z,100457.89
2018-05-25T07:27:44.577Z,100459.91
2018-05-25T07:30:12.976Z,100462.12
2018-05-25T07:32:41.301Z,100467.36
2018-05-25T07:35:09.643Z,100467.34
2018-05-25T07:37:37.969Z,100468.30
2018-05-25T07:40:06.610Z,100469.13
2018-05-25T07:42:34.936Z,100469.05
2018-05-25T07:45:03.364Z,100469.94
2018-05-25T07:47:31.692Z,100480.52
2018-05-25T07:50:00.144Z,100475.88
2018-05-25T07:52:28.475Z,100470.19
2018-05-25T07:54:56.793Z,100469.75
2018-05-25T07:57:25.135Z,100466.02
2018-05-25T07:59:53.452Z,100467.26
2018-05-25T08:02:21.804Z,100463.98
2018-05-25T08:04:50.121Z,100463.58
2018-05-25T08:07:18.464Z,100467.22
2018-05-25T08:09:46.790Z,100470.49
2018-05-25T08:12:15.107Z,100463.94
2018-05-25T08:14:44.297Z,100464.55
2018-05-25T08:17:12.635Z,100463.75
2018-05-25T08:19:41.040Z,100460.53
2018-05-25T08:22:09.448Z,100462.35
2018-05-25T08:24:37.786Z,100461.22
2018-05-25T08:27:06.099Z,100457.09
2018-05-25T08:29:34.419Z,100460.43
2018-05-25T08:32:02.781Z,100450.80
2018-05-25T08:34:46.756Z,100447.69
2018-05-25T08:37:15.133Z,100442.23
2018-05-25T08:39:43.535Z,100426.93
2018-05-25T08:42:11.924Z,100445.47
2018-05-25T08:44:40.288Z,100434.56
2018-05-25T08:47:08.706Z,100442.84
2018-05-25T08:49:37.052Z,100433.69
2018-05-25T08:52:05.394Z,100433.77
2018-05-25T08:54:33.740Z,100428.70
2018-05-25T08:57:02.067Z,100439.41
2018-05-25T08:59:30.420Z,100445.44
2018-05-25T09:01:58.858Z,100441.58
2018-05-25T09:04:27.188Z,100430.05
2018-05-25T09:06:55.511Z,100440.58
2018-05-25T09:09:23.846Z,100435.52
2018-05-25T09:11:52.175Z,100438.28
2018-05-25T09:14:20.491Z,100437.80
2018-05-25T09:16:49.162Z,100438.59
2018-05-25T09:19:17.507Z,100430.37
2018-05-25T09:21:45.862Z,100427.13
2018-05-25T09:24:14.174Z,100429.63
2018-05-25T09:26:42.574Z,100427.63
2018-05-25T09:29:10.901Z,100443.84
2018-05-25T09:31:39.255Z,100427.77
2018-05-25T09:34:07.568Z,100424.25
2018-05-25T09:36:35.906Z,100424.78
2018-05-25T09:39:04.220Z,100433.78
2018-05-25T09:41:32.547Z,100429.68
2018-05-25T09:44:00.958Z,100438.78
2018-05-25T09:46:29.312Z,100434.06
2018-05-25T09:48:57.703Z,100434.88
2018-05-25T09:51:25.972Z,100436.27
2018-05-25T09:53:54.322Z,100428.98
2018-05-25T09:56:22.653Z,100435.11
2018-05-25T09:58:51.021Z,100427.50
2018-05-25T10:01:19.457Z,100424.98
2018-05-25T10:03:47.849Z,100422.45
2018-05-25T10:06:16.180Z,100435.18
2018-05-25T10:08:44.504Z,100428.42
2018-05-25T10:11:12.952Z,100421.88
2018-05-25T10:13:41.319Z,100414.89
2018-05-25T10:16:09.700Z,100411.73
2018-05-25T10:18:38.043Z,100413.41
2018-05-25T10:21:06.378Z,100409.60
2018-05-25T10:23:34.710Z,100422.30
2018-05-25T10:26:03.033Z,100402.73
2018-05-25T10:28:31.373Z,100400.05
2018-05-25T10:31:00.032Z,100397.72
2018-05-25T10:33:28.376Z,100399.89
2018-05-25T10:35:56.751Z,100397.42
2018-05-25T10:38:25.100Z,100406.80
2018-05-25T10:40:56.643Z,100403.25
2018-05-25T10:43:24.972Z,100397.47
2018-05-25T10:45:53.307Z,100392.58
2018-05-25T10:48:21.635Z,100401.28
2018-05-25T10:50:49.968Z,100387.70
2018-05-25T10:53:18.357Z,100394.73
2018-05-25T10:55:46.675Z,100394.47
2018-05-25T10:58:15.022Z,100386.56
2018-05-25T11:00:43.492Z,100384.65
2018-05-25T11:03:12.830Z,100388.50
2018-05-25T11:05:43.998Z,100374.36
2018-05-25T11:08:12.312Z,100365.17
2018-05-25T11:10:40.644Z,100384.52
2018-05-25T11:13:08.959Z,100363.73
2018-05-25T11:15:37.365Z,100377.66
2018-05-25T11:18:05.727Z,100370.41
2018-05-25T11:20:34.099Z,100370.91
2018-05-25T11:23:02.405Z,100367.53
2018-05-25T11:25:30.798Z,100371.52
2018-05-25T11:27:59.113Z,100365.42
2018-05-25T11:30:27.529Z,100372.48
2018-05-25T11:32:55.942Z,100364.30
2018-05-25T11:35:24.291Z,100370.42
2018-05-25T11:37:52.688Z,100363.70
2018-05-25T11:40:21.115Z,100362.56
2018-05-25T11:42:49.435Z,100360.05
2018-05-25T11:45:17.757Z,100361.31
2018-05-25T11:47:46.082Z,100359.13
2018-05-25T11:50:14.435Z,100355.92
2018-05-25T11:52:42.855Z,100355.39
2018-05-25T11:55:11.264Z,100347.81
2018-05-25T11:57:39.596Z,100338.41
2018-05-25T12:00:08.021Z,100340.95
2018-05-25T12:02:36.367Z,100343.14
2018-05-25T12:05:04.737Z,100345.25
2018-05-25T12:07:33.108Z,100342.72
2018-05-25T12:10:01.436Z,100338.36
2018-05-25T12:12:29.787Z,100333.94
2018-05-25T12:14:59.152Z,100336.44
2018-05-25T12:17:27.593Z,100332.39
2018-05-25T12:19:55.938Z,100334.33
2018-05-25T12:22:24.323Z,100327.75
2018-05-25T12:24:52.646Z,100326.09
2018-05-25T12:27:21.296Z,100323.45
2018-05-25T12:29:50.300Z,100318.06
2018-05-25T12:32:18.645Z,100323.05
2018-05-25T12:34:47.055Z,100332.26
2018-05-25T12:37:15.372Z,100331.34
2018-05-25T12:39:43.710Z,100330.32
2018-05-25T12:42:12.038Z,100326.64
2018-05-25T12:44:52.109Z,100317.28
2018-05-25T12:47:20.442Z,100316.44
2018-05-25T12:49:48.891Z,100306.31
2018-05-25T12:52:17.202Z,100303.25
2018-05-25T12:54:45.541Z,100298.80
2018-05-25T12:57:13.941Z,100298.21
2018-05-25T12:59:42.361Z,100292.91
2018-05-25T13:02:10.682Z,100294.28
2018-05-25T13:04:39.036Z,100288.95
2018-05-25T13:07:07.380Z,100287.91
2018-05-25T13:09:35.733Z,100298.51
2018-05-25T13:12:04.077Z,100289.27
2018-05-25T13:14:32.422Z,100293.45
2018-05-25T13:17:00.745Z,100285.81
2018-05-25T13:19:29.083Z,100284.91
2018-05-25T13:21:57.408Z,100293.36
2018-05-25T13:24:25.768Z,100286.69
2018-05-25T13:26:54.104Z,100285.01
2018-05-25T13:29:22.478Z,100293.59
2018-05-25T13:31:50.846Z,100292.11
2018-05-25T13:34:19.228Z,100282.97
2018-05-25T13:36:47.555Z,100284.23
2018-05-25T13:39:15.891Z,100288.05
2018-05-25T13:41:44.304Z,100288.23
2018-05-25T13:44:12.636Z,100279.54
2018-05-25T13:46:40.988Z,100279.27
2018-05-25T13:49:09.378Z,100275.98
2018-05-25T13:51:37.740Z,100275.75
2018-05-25T13:54:06.170Z,100278.55
2018-05-25T13:56:34.502Z,100278.11
2018-05-25T13:59:02.863Z,100276.75
2018-05-25T14:01:31.204Z,100279.65
2018-05-25T14:03:59.538Z,100268.75
2018-05-25T14:06:27.876Z,100277.64
2018-05-25T14:08:56.206Z,100267.80
2018-05-25T14:11:24.603Z,100275.55
2018-05-25T14:13:52.979Z,100274.53
2018-05-25T14:16:21.803Z,100280.29
2018-05-25T14:18:50.226Z,100279.78
2018-05-25T14:21:18.637Z,100284.86
2018-05-25T14:23:46.995Z,100279.27
2018-05-25T14:26:15.364Z,100273.79
2018-05-25T14:28:43.697Z,100276.25
2018-05-25T14:31:12.025Z,100273.47
2018-05-25T14:33:40.359Z,100273.54
2018-05-25T14:36:08.838Z,100272.56
2018-05-25T14:38:37.255Z,100265.36
2018-05-25T14:41:05.585Z,100273.00
2018-05-25T14:43:34.016Z,100274.14
2018-05-25T14:46:02.396Z,100267.33
2018-05-25T14:48:30.766Z,100263.47
2018-05-25T14:50:59.129Z,100259.03
2018-05-25T14:53:27.460Z,100273.38
2018-05-25T14:55:55.776Z,100285.67
2018-05-25T14:58:24.156Z,100279.77
2018-05-25T15:00:52.520Z,100278.11
2018-05-25T15:03:20.949Z,100284.27
2018-05-25T15:05:49.342Z,100284.37
2018-05-25T15:08:17.668Z,100288.06
2018-05-25T15:10:46.024Z,100287.91
2018-05-25T15:13:14.350Z,100283.06
2018-05-25T15:15:42.710Z,100278.00
2018-05-25T15:18:11.033Z,100278.42
2018-05-25T15:20:39.385Z,100275.50
2018-05-25T15:23:07.712Z,100279.28
2018-05-25T15:25:36.081Z,100270.74
2018-05-25T15:28:04.415Z,100265.23
2018-05-25T15:30:32.741Z,100268.58
2018-05-25T15:33:01.072Z,100267.93
2018-05-25T15:35:29.455Z,100267.11
2018-05-25T15:37:57.832Z,100270.31
2018-05-25T15:40:26.172Z,100273.39
2018-05-25T15:42:54.491Z,100268.08
2018-05-25T15:45:22.823Z,100273.82
2018-05-25T15:47:51.153Z,100269.95
2018-05-25T15:50:19.484Z,100271.51
2018-05-25T15:52:47.815Z,100271.13
2018-05-25T15:55:17.771Z,100265.13
2018-05-25T15:57:46.115Z,100276.31
2018-05-25T16:00:14.463Z,100271.63
2018-05-25T16:02:42.779Z,100278.06
2018-05-25T16:05:11.163Z,100276.19
2018-05-25T16:07:39.487Z,100286.98
2018-05-25T16:10:07.857Z,100281.36
2018-05-25T16:12:36.239Z,100276.99
2018-05-25T16:15:04.676Z,100280.87
2018-05-25T16:17:33.055Z,100286.84
2018-05-25T16:20:01.412Z,100282.44
2018-05-25T16:22:29.736Z,100287.82
2018-05-25T16:24:58.061Z,100289.50
2018-05-25T16:27:26.503Z,100294.86
2018-05-25T16:29:54.819Z,100289.16
2018-05-25T16:32:23.295Z,100303.16
2018-05-25T16:34:51.621Z,100294.86
2018-05-25T16:37:19.983Z,100292.91
2018-05-25T16:39:48.339Z,100299.22
2018-05-25T16:42:16.669Z,100298.43
2018-05-25T16:44:44.985Z,100301.17
2018-05-25T16:47:13.419Z,100298.77
2018-05-25T16:49:41.769Z,100297.95
2018-05-25T16:52:10.123Z,100307.15
2018-05-25T16:54:38.449Z,100301.77
2018-05-25T16:57:06.875Z,100300.38
2018-05-25T16:59:35.307Z,100305.61
2018-05-25T17:02:03.660Z,100306.36
2018-05-25T17:04:31.980Z,100307.33
2018-05-25T17:07:00.334Z,100312.13
2018-05-25T17:09:28.757Z,100311.41
2018-05-25T17:11:57.076Z,100317.80
2018-05-25T17:14:25.448Z,100317.71
2018-05-25T17:16:53.950Z,100321.08
2018-05-25T17:19:22.285Z,100316.97
2018-05-25T17:21:50.716Z,100310.84
2018-05-25T17:24:19.148Z,100317.52
2018-05-25T17:26:47.502Z,100326.46
2018-05-25T17:29:15.887Z,100322.63
2018-05-25T17:31:44.280Z,100331.17
2018-05-25T17:34:12.687Z,100332.55
2018-05-25T17:36:41.125Z,100332.86
2018-05-25T17:39:09.464Z,100328.27
2018-05-25T17:41:37.856Z,100331.52
2018-05-25T17:44:06.248Z,100333.08
2018-05-25T17:46:34.639Z,100332.07
2018-05-25T17:49:03.028Z,100333.11
2018-05-25T17:51:31.349Z,100332.36
2018-05-25T17:53:59.707Z,100335.19
2018-05-25T17:56:30.717Z,100332.78
2018-05-25T17:58:59.808Z,100335.86
2018-05-25T18:01:28.180Z,100339.27
2018-05-25T18:03:56.555Z,100330.30
2018-05-25T18:06:24.879Z,100332.65
2018-05-25T18:08:53.251Z,100339.67
2018-05-25T18:11:21.627Z,100342.71
2018-05-25T18:13:49.986Z,100348.72
2018-05-25T18:16:18.374Z,100348.38
2018-05-25T18:18:46.715Z,100346.27
2018-05-25T18:21:15.056Z,100347.12
2018-05-25T18:23:43.400Z,100349.33
2018-05-25T18:26:11.894Z,100344.91
2018-05-25T18:28:40.218Z,100351.41
2018-05-25T18:31:09.449Z,100352.13
2018-05-25T18:33:41.653Z,100350.59
2018-05-25T18:36:10.071Z,100353.56
2018-05-25T18:38:38.472Z,100350.59
2018-05-25T18:41:06.831Z,100359.88
2018-05-25T18:43:35.177Z,100357.53
2018-05-25T18:46:03.531Z,100365.74
2018-05-25T18:48:31.849Z,100359.15
2018-05-25T18:51:00.175Z,100368.42
2018-05-25T18:53:28.499Z,100363.75
2018-05-25T18:55:56.827Z,100366.56
2018-05-25T18:58:25.150Z,100362.16
2018-05-25T19:00:53.523Z,100376.13
2018-05-25T19:03:21.847Z,100371.28
2018-05-25T19:05:50.162Z,100375.83
2018-05-25T19:08:18.491Z,100383.53
2018-05-25T19:10:46.819Z,100389.46
2018-05-25T19:13:15.150Z,100391.12
2018-05-25T19:15:43.549Z,100399.23
2018-05-25T19:18:11.919Z,100407.03
2018-05-25T19:20:40.407Z,100411.72
2018-05-25T19:23:09.060Z,100415.57
2018-05-25T19:25:37.412Z,100419.35
2018-05-25T19:28:05.797Z,100418.56
2018-05-25T19:30:34.158Z,100423.95
2018-05-25T19:33:02.495Z,100430.73
2018-05-25T19:35:30.882Z,100429.53
2018-05-25T19:37:59.235Z,100432.39
2018-05-25T19:40:27.622Z,100437.70
2018-05-25T19:42:56.304Z,100438.97
2018-05-25T19:45:24.701Z,100443.19
2018-05-25T19:47:53.015Z,100446.89
2018-05-25T19:50:21.354Z,100444.53
2018-05-25T19:52:49.715Z,100449.30
2018-05-25T19:55:18.120Z,100454.20
2018-05-25T19:57:46.457Z,100450.37
2018-05-25T20:00:14.924Z,100448.38
2018-05-25T20:02:43.287Z,100453.91
2018-05-25T20:05:11.742Z,100457.49
2018-05-25T20:07:40.091Z,100453.37
2018-05-25T20:10:08.435Z,100453.02
2018-05-25T20:12:36.778Z,100451.37
2018-05-25T20:15:05.120Z,100456.52
2018-05-25T20:17:34.089Z,100464.23
2018-05-25T20:20:02.450Z,100458.39
2018-05-25T20:22:30.962Z,100453.77
2018-05-25T20:24:59.371Z,100461.47
2018-05-25T20:27:28.504Z,100464.87
2018-05-25T20:29:57.770Z,100461.03
2018-05-25T20:32:27.143Z,100463.25
2018-05-25T20:34:55.512Z,100455.72
2018-05-25T20:37:23.968Z,100453.50
2018-05-25T20:39:52.352Z,100452.36
2018-05-25T20:42:20.703Z,100452.75
2018-05-25T20:44:49.076Z,100455.91
2018-05-25T20:47:17.442Z,100456.98
2018-05-25T20:49:45.841Z,100464.05
2018-05-25T20:52:14.211Z,100459.39
2018-05-25T20:54:42.809Z,100459.00
2018-05-25T20:57:11.222Z,100465.05
2018-05-25T20:59:39.590Z,100474.87
2018-05-25T21:02:07.935Z,100484.47
2018-05-25T21:04:36.273Z,100473.08
2018-05-25T21:07:04.910Z,100472.64
2018-05-25T21:09:33.915Z,100473.32
2018-05-25T21:12:02.348Z,100471.81
2018-05-25T21:14:30.684Z,100471.92
2018-05-25T21:16:59.048Z,100472.60
2018-05-25T21:19:27.383Z,100471.06
2018-05-25T21:21:56.115Z,100476.73
2018-05-25T21:24:24.460Z,100478.41
2018-05-25T21:26:52.831Z,100475.66
2018-05-25T21:29:21.235Z,100484.53
2018-05-25T21:31:49.640Z,100490.67
2018-05-25T21:34:17.992Z,100497.71
2018-05-25T21:36:46.482Z,100491.33
2018-05-25T21:39:14.882Z,100492.99
2018-05-25T21:41:43.220Z,100492.01
2018-05-25T21:44:11.592Z,100495.48
2018-05-25T21:46:39.975Z,100494.74
2018-05-25T21:49:08.308Z,100490.27
2018-05-25T21:51:36.688Z,100493.79
2018-05-25T21:54:05.046Z,100496.95
2018-05-25T21:56:33.842Z,100496.25
2018-05-25T21:59:02.221Z,100505.25
2018-05-25T22:01:31.404Z,100506.23
2018-05-25T22:03:59.747Z,100513.38
2018-05-25T22:06:28.165Z,100514.58
2018-05-25T22:08:56.544Z,100514.89
2018-05-25T22:11:24.913Z,100512.90
2018-05-25T22:13:53.322Z,100514.05
2018-05-25T22:16:21.677Z,100515.37
2018-05-25T22:18:50.026Z,100512.83
2018-05-25T22:21:18.404Z,100516.03
2018-05-25T22:23:46.751Z,100520.33
2018-05-25T22:26:15.091Z,100517.65
2018-05-25T22:28:44.232Z,100523.07
2018-05-25T22:31:12.573Z,100524.69
2018-05-25T22:33:40.885Z,100521.00
2018-05-25T22:36:09.231Z,100523.23
2018-05-25T22:38:37.560Z,100519.59
2018-05-25T22:41:05.939Z,100514.86
2018-05-25T22:43:46.323Z,100520.94
2018-05-25T22:46:26.697Z,100517.95
2018-05-25T22:49:07.067Z,100515.06
2018-05-25T22:51:47.036Z,100511.31
2018-05-25T22:54:27.594Z,100512.00
2018-05-25T22:56:55.951Z,100517.50
2018-05-25T22:59:24.321Z,100521.16
2018-05-25T23:01:52.662Z,100527.53
2018-05-25T23:04:21.103Z,100528.06
2018-05-25T23:06:49.631Z,100526.86
2018-05-25T23:09:18.012Z,100533.06
2018-05-25T23:11:46.357Z,100537.20
2018-05-25T23:14:14.746Z,100541.00
2018-05-25T23:16:43.155Z,100537.65
2018-05-25T23:19:11.543Z,100534.22
2018-05-25T23:21:39.887Z,100533.74
2018-05-25T23:24:08.210Z,100534.70
2018-05-25T23:26:36.628Z,100526.27
2018-05-25T23:29:05.015Z,100534.70
2018-05-25T23:31:33.412Z,100537.67
2018-05-25T23:34:01.865Z,100530.11
2018-05-25T23:36:30.190Z,100531.33
2018-05-25T23:38:59.388Z,100531.56
2018-05-25T23:41:28.583Z,100526.22
2018-05-25T23:43:56.976Z,100532.11
2018-05-25T23:46:25.291Z,100535.39
2018-05-25T23:48:53.624Z,100537.68
2018-05-25T23:51:21.959Z,100537.75
2018-05-25T23:53:50.298Z,100540.66
2018-05-25T23:56:18.657Z,100540.45
2018-05-25T23:58:47.041Z,100543.36
